createdAt,value
2023-04-02T00:00:33.802Z,75.70
2023-04-02T00:01:33.801Z,74.19
2023-04-02T00:02:33.949Z,73.56
2023-04-02T00:03:33.859Z,75.93
2023-04-02T00:04:33.888Z,74.18
2023-04-02T00:05:34.056Z,71.35
2023-04-02T00:06:33.909Z,73.23
2023-04-02T00:07:33.909Z,75.34
2023-04-02T00:08:33.950Z,73.73
2023-04-02T00:09:33.948Z,78.37
2023-04-02T00:10:33.970Z,74.20
2023-04-02T00:11:34.001Z,74.30
2023-04-02T00:12:34.060Z,75.48
2023-04-02T00:13:34.053Z,73.65
2023-04-02T00:14:34.084Z,76.52
2023-04-02T00:15:34.303Z,78.25
2023-04-02T00:16:34.149Z,72.13
2023-04-02T00:17:34.109Z,74.71
2023-04-02T00:18:34.133Z,74.34
2023-04-02T00:19:34.174Z,72.78
2023-04-02T00:20:34.215Z,69.98
2023-04-02T00:21:34.223Z,73.38
2023-04-02T00:22:34.256Z,74.34
2023-04-02T00:23:34.256Z,74.18
2023-04-02T00:24:34.258Z,74.07
2023-04-02T00:25:34.424Z,71.15
2023-04-02T00:26:34.242Z,74.44
2023-04-02T00:27:34.267Z,75.94
2023-04-02T00:28:34.277Z,75.60
2023-04-02T00:29:34.244Z,76.08
2023-04-02T00:30:34.270Z,72.84
2023-04-02T00:31:34.288Z,76.07
2023-04-02T00:32:34.304Z,70.57
2023-04-02T00:33:34.273Z,73.19
2023-04-02T00:34:34.232Z,70.27
2023-04-02T00:35:34.453Z,70.13
2023-04-02T00:36:34.204Z,71.17
2023-04-02T00:37:34.233Z,73.67
2023-04-02T00:38:34.199Z,69.67
2023-04-02T00:39:34.210Z,73.04
2023-04-02T00:40:34.231Z,73.03
2023-04-02T00:41:34.234Z,71.27
2023-04-02T00:42:34.233Z,72.97
2023-04-02T00:43:34.204Z,71.89
2023-04-02T00:44:34.232Z,75.71
2023-04-02T00:45:34.406Z,70.79
2023-04-02T00:46:34.186Z,71.64
2023-04-02T00:47:34.202Z,70.78
2023-04-02T00:48:34.234Z,72.12
2023-04-02T00:49:34.197Z,72.71
2023-04-02T00:50:34.257Z,73.50
2023-04-02T00:51:34.180Z,69.62
2023-04-02T00:52:34.191Z,70.06
2023-04-02T00:53:34.207Z,70.99
2023-04-02T00:54:34.179Z,73.58
2023-04-02T00:55:34.430Z,71.91
2023-04-02T00:56:34.172Z,71.75
2023-04-02T00:57:34.289Z,75.40
2023-04-02T00:58:34.188Z,75.87
2023-04-02T00:59:34.229Z,70.84
2023-04-02T01:00:34.215Z,74.99
2023-04-02T01:01:34.221Z,75.14
2023-04-02T01:02:34.341Z,72.80
2023-04-02T01:03:34.507Z,71.79
2023-04-02T01:04:34.265Z,73.66
2023-04-02T01:05:34.374Z,70.56
2023-04-02T01:06:34.181Z,73.69
2023-04-02T01:07:34.159Z,70.66
2023-04-02T01:08:34.154Z,72.12
2023-04-02T01:09:34.175Z,70.65
2023-04-02T01:10:34.160Z,71.12
2023-04-02T01:11:34.163Z,70.94
2023-04-02T01:12:34.145Z,71.91
2023-04-02T01:13:34.184Z,74.31
2023-04-02T01:14:34.119Z,70.10
2023-04-02T01:15:34.581Z,74.10
2023-04-02T01:16:34.139Z,71.65
2023-04-02T01:17:34.209Z,71.31
2023-04-02T01:18:34.106Z,72.65
2023-04-02T01:19:34.151Z,71.95
2023-04-02T01:20:34.113Z,71.05
2023-04-02T01:21:34.115Z,69.12
2023-04-02T01:22:34.126Z,72.37
2023-04-02T01:23:34.121Z,69.99
2023-04-02T01:24:34.135Z,71.51
2023-04-02T01:25:34.284Z,71.32
2023-04-02T01:26:34.106Z,71.48
2023-04-02T01:27:34.099Z,72.67
2023-04-02T01:28:34.073Z,71.10
2023-04-02T01:29:34.094Z,70.79
2023-04-02T01:30:34.069Z,67.97
2023-04-02T01:31:34.105Z,70.56
2023-04-02T01:32:34.097Z,69.83
2023-04-02T01:33:34.089Z,69.89
2023-04-02T01:34:34.073Z,71.65
2023-04-02T01:35:34.349Z,72.09
2023-04-02T01:36:34.077Z,71.16
2023-04-02T01:37:34.049Z,70.80
2023-04-02T01:38:34.076Z,71.24
2023-04-02T01:39:34.060Z,72.93
2023-04-02T01:40:34.030Z,69.80
2023-04-02T01:41:34.029Z,69.44
2023-04-02T01:42:34.017Z,70.05
2023-04-02T01:43:34.014Z,70.69
2023-04-02T01:44:34.001Z,70.85
2023-04-02T01:45:34.104Z,69.44
2023-04-02T01:46:34.915Z,72.42
2023-04-02T01:47:34.045Z,73.73
2023-04-02T01:48:33.994Z,71.34
2023-04-02T01:49:33.986Z,70.48
2023-04-02T01:50:33.989Z,72.30
2023-04-02T01:51:33.998Z,70.94
2023-04-02T01:52:34.013Z,70.44
2023-04-02T01:53:33.991Z,73.27
2023-04-02T01:54:34.029Z,69.91
2023-04-02T01:55:34.157Z,71.99
2023-04-02T01:56:33.957Z,73.63
2023-04-02T01:57:34.000Z,71.02
2023-04-02T01:58:34.004Z,69.86
2023-04-02T01:59:33.955Z,70.82
2023-04-02T02:00:34.003Z,73.21
2023-04-02T02:01:33.982Z,68.90
2023-04-02T02:02:34.171Z,69.92
2023-04-02T02:03:33.963Z,68.06
2023-04-02T02:04:33.981Z,70.92
2023-04-02T02:05:34.266Z,68.76
2023-04-02T02:06:33.963Z,68.41
2023-04-02T02:07:33.992Z,70.16
2023-04-02T02:08:34.064Z,70.26
2023-04-02T02:09:33.991Z,70.20
2023-04-02T02:10:33.991Z,69.35
2023-04-02T02:11:33.953Z,67.37
2023-04-02T02:12:33.994Z,67.26
2023-04-02T02:13:33.968Z,70.27
2023-04-02T02:14:34.007Z,71.47
2023-04-02T02:15:34.315Z,68.69
2023-04-02T02:16:34.048Z,66.03
2023-04-02T02:17:34.016Z,68.02
2023-04-02T02:18:33.968Z,69.67
2023-04-02T02:19:34.031Z,66.61
2023-04-02T02:20:33.982Z,69.19
2023-04-02T02:21:34.022Z,69.61
2023-04-02T02:22:33.995Z,67.02
2023-04-02T02:23:33.981Z,64.70
2023-04-02T02:24:34.021Z,64.80
2023-04-02T02:25:34.230Z,65.45
2023-04-02T02:26:34.035Z,67.65
2023-04-02T02:27:33.977Z,69.45
2023-04-02T02:28:33.986Z,68.75
2023-04-02T02:29:33.987Z,66.33
2023-04-02T02:30:33.984Z,68.20
2023-04-02T02:31:34.065Z,69.15
2023-04-02T02:32:34.038Z,67.41
2023-04-02T02:33:34.006Z,68.94
2023-04-02T02:34:33.985Z,67.72
2023-04-02T02:35:34.404Z,67.05
2023-04-02T02:36:34.004Z,64.56
2023-04-02T02:37:33.984Z,65.14
2023-04-02T02:38:34.012Z,68.64
2023-04-02T02:39:33.982Z,68.53
2023-04-02T02:40:34.004Z,70.24
2023-04-02T02:41:34.032Z,65.60
2023-04-02T02:42:34.024Z,66.19
2023-04-02T02:43:34.027Z,68.11
2023-04-02T02:44:33.999Z,67.75
2023-04-02T02:45:34.202Z,65.29
2023-04-02T02:46:34.013Z,66.95
2023-04-02T02:47:34.023Z,67.42
2023-04-02T02:48:34.010Z,67.69
2023-04-02T02:49:33.988Z,66.50
2023-04-02T02:50:33.997Z,66.69
2023-04-02T02:51:33.995Z,68.27
2023-04-02T02:52:33.980Z,67.18
2023-04-02T02:53:33.985Z,66.50
2023-04-02T02:54:34.009Z,64.63
2023-04-02T02:55:34.210Z,66.77
2023-04-02T02:56:33.997Z,66.01
2023-04-02T02:57:34.126Z,66.35
2023-04-02T02:58:34.007Z,66.24
2023-04-02T02:59:34.044Z,66.27
2023-04-02T03:00:33.985Z,63.75
2023-04-02T03:01:34.050Z,66.39
2023-04-02T03:02:34.167Z,68.27
2023-04-02T03:03:34.394Z,65.18
2023-04-02T03:04:33.986Z,66.47
2023-04-02T03:05:34.323Z,69.46
2023-04-02T03:06:34.002Z,68.32
2023-04-02T03:07:34.032Z,64.63
2023-04-02T03:08:34.017Z,66.06
2023-04-02T03:09:34.003Z,68.04
2023-04-02T03:10:33.999Z,64.69
2023-04-02T03:11:34.052Z,64.11
2023-04-02T03:12:34.032Z,69.30
2023-04-02T03:13:34.011Z,65.20
2023-04-02T03:14:33.983Z,63.34
2023-04-02T03:15:34.337Z,67.15
2023-04-02T03:16:33.985Z,65.64
2023-04-02T03:17:34.032Z,66.58
2023-04-02T03:18:33.997Z,64.01
2023-04-02T03:19:34.033Z,65.45
2023-04-02T03:20:34.014Z,61.68
2023-04-02T03:21:34.009Z,66.85
2023-04-02T03:22:33.999Z,67.67
2023-04-02T03:23:33.993Z,59.03
2023-04-02T03:24:34.005Z,64.29
2023-04-02T03:25:34.200Z,62.64
2023-04-02T03:26:34.008Z,62.35
2023-04-02T03:27:34.006Z,64.40
2023-04-02T03:28:34.036Z,64.49
2023-04-02T03:29:34.026Z,62.66
2023-04-02T03:30:34.005Z,61.46
2023-04-02T03:31:34.084Z,63.89
2023-04-02T03:32:34.062Z,62.94
2023-04-02T03:33:34.009Z,62.10
2023-04-02T03:34:34.018Z,63.84
2023-04-02T03:35:34.347Z,63.62
2023-04-02T03:36:34.022Z,61.79
2023-04-02T03:37:34.022Z,64.30
2023-04-02T03:38:34.030Z,63.02
2023-04-02T03:39:33.987Z,63.32
2023-04-02T03:40:33.969Z,62.16
2023-04-02T03:41:33.986Z,64.82
2023-04-02T03:42:33.987Z,64.63
2023-04-02T03:43:33.979Z,62.35
2023-04-02T03:44:33.974Z,62.09
2023-04-02T03:45:34.377Z,66.33
2023-04-02T03:46:34.029Z,63.36
2023-04-02T03:47:34.009Z,65.34
2023-04-02T03:48:33.949Z,61.69
2023-04-02T03:49:33.971Z,59.88
2023-04-02T03:50:33.974Z,64.25
2023-04-02T03:51:33.985Z,64.88
2023-04-02T03:52:33.943Z,64.66
2023-04-02T03:53:33.983Z,63.52
2023-04-02T03:54:33.961Z,66.23
2023-04-02T03:55:34.361Z,66.46
2023-04-02T03:56:33.957Z,67.09
2023-04-02T03:57:33.990Z,64.67
2023-04-02T03:58:34.011Z,61.07
2023-04-02T03:59:33.973Z,63.76
2023-04-02T04:00:33.971Z,61.77
2023-04-02T04:01:34.020Z,64.35
2023-04-02T04:02:34.011Z,59.76
2023-04-02T04:03:33.988Z,64.11
2023-04-02T04:04:33.997Z,61.63
2023-04-02T04:05:34.150Z,62.27
2023-04-02T04:06:33.980Z,62.83
2023-04-02T04:07:33.957Z,63.36
2023-04-02T04:08:33.992Z,63.38
2023-04-02T04:09:33.949Z,64.50
2023-04-02T04:10:33.955Z,64.42
2023-04-02T04:11:33.972Z,60.74
2023-04-02T04:12:33.964Z,61.71
2023-04-02T04:13:33.941Z,63.83
2023-04-02T04:14:33.978Z,61.79
2023-04-02T04:15:34.158Z,62.39
2023-04-02T04:16:33.949Z,60.38
2023-04-02T04:17:33.994Z,61.86
2023-04-02T04:18:34.028Z,63.71
2023-04-02T04:19:33.957Z,58.57
2023-04-02T04:20:33.983Z,61.60
2023-04-02T04:21:33.928Z,62.16
2023-04-02T04:22:34.029Z,59.81
2023-04-02T04:23:33.931Z,62.67
2023-04-02T04:24:33.954Z,62.09
2023-04-02T04:25:34.498Z,62.75
2023-04-02T04:26:33.954Z,63.36
2023-04-02T04:27:33.975Z,64.01
2023-04-02T04:28:33.946Z,59.89
2023-04-02T04:29:33.957Z,63.19
2023-04-02T04:30:33.964Z,62.46
2023-04-02T04:31:33.982Z,60.20
2023-04-02T04:32:34.050Z,62.91
2023-04-02T04:33:33.965Z,65.93
2023-04-02T04:34:33.956Z,63.28
2023-04-02T04:35:34.132Z,61.63
2023-04-02T04:36:33.943Z,63.07
2023-04-02T04:37:33.975Z,64.21
2023-04-02T04:38:33.938Z,64.86
2023-04-02T04:39:33.949Z,61.23
2023-04-02T04:40:33.999Z,61.88
2023-04-02T04:41:33.958Z,60.64
2023-04-02T04:42:33.980Z,61.74
2023-04-02T04:43:33.976Z,61.68
2023-04-02T04:44:33.984Z,59.97
2023-04-02T04:45:34.173Z,63.92
2023-04-02T04:46:34.047Z,59.69
2023-04-02T04:47:34.009Z,62.40
2023-04-02T04:48:35.233Z,64.47
2023-04-02T04:49:33.981Z,60.61
2023-04-02T04:50:34.022Z,61.26
2023-04-02T04:51:33.997Z,63.72
2023-04-02T04:52:34.015Z,64.84
2023-04-02T04:53:34.030Z,62.63
2023-04-02T04:54:34.020Z,62.02
2023-04-02T04:55:34.243Z,59.92
2023-04-02T04:56:34.037Z,62.95
2023-04-02T04:57:34.052Z,62.71
2023-04-02T04:58:34.053Z,63.02
2023-04-02T04:59:34.069Z,61.24
2023-04-02T05:00:34.059Z,63.56
2023-04-02T05:01:34.097Z,62.42
2023-04-02T05:02:34.031Z,63.11
2023-04-02T05:03:34.055Z,60.62
2023-04-02T05:04:34.084Z,65.19
2023-04-02T05:05:34.218Z,61.78
2023-04-02T05:06:34.040Z,60.53
2023-04-02T05:07:34.036Z,64.11
2023-04-02T05:08:34.081Z,59.68
2023-04-02T05:09:34.060Z,58.02
2023-04-02T05:10:34.044Z,60.44
2023-04-02T05:11:34.057Z,59.83
2023-04-02T05:12:34.092Z,61.87
2023-04-02T05:13:34.085Z,58.18
2023-04-02T05:14:34.094Z,57.34
2023-04-02T05:15:34.368Z,56.89
2023-04-02T05:16:34.182Z,55.81
2023-04-02T05:17:34.126Z,57.65
2023-04-02T05:18:34.107Z,60.65
2023-04-02T05:19:34.132Z,57.47
2023-04-02T05:20:34.083Z,57.58
2023-04-02T05:21:34.110Z,58.77
2023-04-02T05:22:34.102Z,56.29
2023-04-02T05:23:34.143Z,59.19
2023-04-02T05:24:34.137Z,55.22
2023-04-02T05:25:34.287Z,58.03
2023-04-02T05:26:34.129Z,55.24
2023-04-02T05:27:34.145Z,58.06
2023-04-02T05:28:34.171Z,52.92
2023-04-02T05:29:34.162Z,54.06
2023-04-02T05:30:34.183Z,55.43
2023-04-02T05:31:34.194Z,52.86
2023-04-02T05:32:34.180Z,55.54
2023-04-02T05:33:34.183Z,55.35
2023-04-02T05:34:34.152Z,54.96
2023-04-02T05:35:34.582Z,53.02
2023-04-02T05:36:34.177Z,57.22
2023-04-02T05:37:34.178Z,54.68
2023-04-02T05:38:34.189Z,55.62
2023-04-02T05:39:34.204Z,56.06
2023-04-02T05:40:34.167Z,55.85
2023-04-02T05:41:34.185Z,55.71
2023-04-02T05:42:34.182Z,57.93
2023-04-02T05:43:34.200Z,59.04
2023-04-02T05:44:34.189Z,54.04
2023-04-02T05:45:34.343Z,56.63
2023-04-02T05:46:34.300Z,58.41
2023-04-02T05:47:34.237Z,55.09
2023-04-02T05:48:34.315Z,55.25
2023-04-02T05:49:34.246Z,58.97
2023-04-02T05:50:34.222Z,53.75
2023-04-02T05:51:34.242Z,56.23
2023-04-02T05:52:34.217Z,55.92
2023-04-02T05:53:34.298Z,56.61
2023-04-02T05:54:34.250Z,58.33
2023-04-02T05:55:34.388Z,55.05
2023-04-02T05:56:34.269Z,59.44
2023-04-02T05:57:43.749Z,59.43
2023-04-02T05:58:36.676Z,59.55
2023-04-02T05:59:34.270Z,59.76
2023-04-02T06:00:34.234Z,59.35
2023-04-02T06:01:34.237Z,60.08
2023-04-02T06:02:34.323Z,59.21
2023-04-02T06:03:34.324Z,55.04
2023-04-02T06:04:34.220Z,59.42
2023-04-02T06:05:34.525Z,58.97
2023-04-02T06:06:34.225Z,57.16
2023-04-02T06:07:34.240Z,54.96
2023-04-02T06:08:34.180Z,58.70
2023-04-02T06:09:34.163Z,58.10
2023-04-02T06:10:34.164Z,54.44
2023-04-02T06:11:34.179Z,58.66
2023-04-02T06:12:34.172Z,57.13
2023-04-02T06:13:34.140Z,58.99
2023-04-02T06:14:34.168Z,55.22
2023-04-02T06:15:34.391Z,56.51
2023-04-02T06:16:34.158Z,54.20
2023-04-02T06:17:34.160Z,52.64
2023-04-02T06:18:34.126Z,57.04
2023-04-02T06:19:34.113Z,55.54
2023-04-02T06:20:34.136Z,53.67
2023-04-02T06:21:34.116Z,54.97
2023-04-02T06:22:34.103Z,53.66
2023-04-02T06:23:34.087Z,57.31
2023-04-02T06:24:34.071Z,54.46
2023-04-02T06:25:34.438Z,56.17
2023-04-02T06:26:34.073Z,54.15
2023-04-02T06:27:34.035Z,55.73
2023-04-02T06:28:34.051Z,55.48
2023-04-02T06:29:34.059Z,51.77
2023-04-02T06:30:34.065Z,55.53
2023-04-02T06:31:33.995Z,59.41
2023-04-02T06:32:34.080Z,55.95
2023-04-02T06:33:33.997Z,57.09
2023-04-02T06:34:33.987Z,54.97
2023-04-02T06:35:34.365Z,56.55
2023-04-02T06:36:33.984Z,55.33
2023-04-02T06:37:33.985Z,53.16
2023-04-02T06:38:33.971Z,54.87
2023-04-02T06:39:33.983Z,53.95
2023-04-02T06:40:33.950Z,53.11
2023-04-02T06:41:33.945Z,52.20
2023-04-02T06:42:33.941Z,53.04
2023-04-02T06:43:33.950Z,55.67
2023-04-02T06:44:33.923Z,53.21
2023-04-02T06:45:34.073Z,53.77
2023-04-02T06:46:33.981Z,56.56
2023-04-02T06:47:33.964Z,56.97
2023-04-02T06:48:33.887Z,56.00
2023-04-02T06:49:33.883Z,57.08
2023-04-02T06:50:33.865Z,54.93
2023-04-02T06:51:33.853Z,51.85
2023-04-02T06:52:35.123Z,56.42
2023-04-02T06:53:33.869Z,55.26
2023-04-02T06:54:33.854Z,56.93
2023-04-02T06:55:34.182Z,53.62
2023-04-02T06:56:33.815Z,55.73
2023-04-02T06:57:33.969Z,55.88
2023-04-02T06:58:33.811Z,56.08
2023-04-02T06:59:33.797Z,53.50
2023-04-02T07:00:33.781Z,53.53
2023-04-02T07:01:33.840Z,56.24
2023-04-02T07:02:33.844Z,53.69
2023-04-02T07:03:33.824Z,56.66
2023-04-02T07:04:33.813Z,53.76
2023-04-02T07:05:34.154Z,52.46
2023-04-02T07:06:33.758Z,52.35
2023-04-02T07:07:33.729Z,50.95
2023-04-02T07:08:33.746Z,53.61
2023-04-02T07:09:33.779Z,53.57
2023-04-02T07:10:33.718Z,52.90
2023-04-02T07:11:33.714Z,53.23
2023-04-02T07:12:33.706Z,52.83
2023-04-02T07:13:33.708Z,48.07
2023-04-02T07:14:33.684Z,49.06
2023-04-02T07:15:33.822Z,49.86
2023-04-02T07:16:33.690Z,49.84
2023-04-02T07:17:33.689Z,53.30
2023-04-02T07:18:33.703Z,51.99
2023-04-02T07:19:33.654Z,52.22
2023-04-02T07:20:33.643Z,49.67
2023-04-02T07:21:33.657Z,53.32
2023-04-02T07:22:33.653Z,52.61
2023-04-02T07:23:33.618Z,50.35
2023-04-02T07:24:33.617Z,55.08
2023-04-02T07:25:33.850Z,50.93
2023-04-02T07:26:33.589Z,54.55
2023-04-02T07:27:33.588Z,49.11
2023-04-02T07:28:33.596Z,50.75
2023-04-02T07:29:33.587Z,49.15
2023-04-02T07:30:33.559Z,49.26
2023-04-02T07:31:33.605Z,51.01
2023-04-02T07:32:33.619Z,50.70
2023-04-02T07:33:33.570Z,49.93
2023-04-02T07:34:33.525Z,51.95
2023-04-02T07:35:33.920Z,48.56
2023-04-02T07:36:33.546Z,47.44
2023-04-02T07:37:33.512Z,49.76
2023-04-02T07:38:33.506Z,48.74
2023-04-02T07:39:34.871Z,50.06
2023-04-02T07:40:33.523Z,57.81
2023-04-02T07:41:33.490Z,49.32
2023-04-02T07:42:33.480Z,48.90
2023-04-02T07:43:33.482Z,50.28
2023-04-02T07:44:33.502Z,51.69
2023-04-02T07:45:33.688Z,48.43
2023-04-02T07:46:33.493Z,48.40
2023-04-02T07:47:33.493Z,46.20
2023-04-02T07:48:33.463Z,49.14
2023-04-02T07:49:33.435Z,52.13
2023-04-02T07:50:33.430Z,49.20
2023-04-02T07:51:33.431Z,47.63
2023-04-02T07:52:33.413Z,46.91
2023-04-02T07:53:33.413Z,49.26
2023-04-02T07:54:33.381Z,49.64
2023-04-02T07:55:33.664Z,48.93
2023-04-02T07:56:33.424Z,47.25
2023-04-02T07:57:33.441Z,43.60
2023-04-02T07:58:35.014Z,46.35
2023-04-02T07:59:33.376Z,51.05
2023-04-02T08:00:33.367Z,47.79
2023-04-02T08:01:33.343Z,46.54
2023-04-02T08:02:33.432Z,50.37
2023-04-02T08:03:33.379Z,46.82
2023-04-02T08:04:33.326Z,45.03
2023-04-02T08:05:33.735Z,48.35
2023-04-02T08:06:33.308Z,46.61
2023-04-02T08:07:33.305Z,43.73
2023-04-02T08:08:33.366Z,47.59
2023-04-02T08:09:33.309Z,47.54
2023-04-02T08:10:33.308Z,47.37
2023-04-02T08:11:33.291Z,44.37
2023-04-02T08:12:33.278Z,44.94
2023-04-02T08:13:33.264Z,44.01
2023-04-02T08:14:33.269Z,45.13
2023-04-02T08:15:33.553Z,45.09
2023-04-02T08:16:33.310Z,45.26
2023-04-02T08:17:33.284Z,46.56
2023-04-02T08:18:33.260Z,42.68
2023-04-02T08:19:36.903Z,46.72
2023-04-02T08:20:34.258Z,46.92
2023-04-02T08:21:33.252Z,47.01
2023-04-02T08:22:33.262Z,47.78
2023-04-02T08:23:33.214Z,47.55
2023-04-02T08:24:33.213Z,46.21
2023-04-02T08:25:33.492Z,46.25
2023-04-02T08:26:33.167Z,44.76
2023-04-02T08:27:33.197Z,45.56
2023-04-02T08:28:33.191Z,45.01
2023-04-02T08:29:33.170Z,46.28
2023-04-02T08:30:33.213Z,44.85
2023-04-02T08:31:33.142Z,43.88
2023-04-02T08:32:33.187Z,46.89
2023-04-02T08:33:33.158Z,45.60
2023-04-02T08:34:33.170Z,42.66
2023-04-02T08:35:33.318Z,44.01
2023-04-02T08:36:33.324Z,42.85
2023-04-02T08:37:33.356Z,40.05
2023-04-02T08:38:33.369Z,42.46
2023-04-02T08:39:33.418Z,40.23
2023-04-02T08:40:33.477Z,41.52
2023-04-02T08:41:33.534Z,44.64
2023-04-02T08:42:33.553Z,41.71
2023-04-02T08:43:33.630Z,45.40
2023-04-02T08:44:33.663Z,44.87
2023-04-02T08:45:33.688Z,46.28
2023-04-02T08:46:33.787Z,42.18
2023-04-02T08:47:33.750Z,44.78
2023-04-02T08:48:33.780Z,42.21
2023-04-02T08:49:33.848Z,39.99
2023-04-02T08:50:33.872Z,43.38
2023-04-02T08:51:33.938Z,42.68
2023-04-02T08:52:33.954Z,41.64
2023-04-02T08:53:34.028Z,43.11
2023-04-02T08:54:34.842Z,41.68
2023-04-02T08:55:34.301Z,42.52
2023-04-02T08:56:34.183Z,40.86
2023-04-02T08:57:34.291Z,41.73
2023-04-02T08:58:34.279Z,46.55
2023-04-02T08:59:34.999Z,45.17
2023-04-02T09:00:35.606Z,41.75
2023-04-02T09:01:34.490Z,44.18
2023-04-02T09:02:34.459Z,41.09
2023-04-02T09:03:34.500Z,42.24
2023-04-02T09:04:34.596Z,42.81
2023-04-02T09:05:34.980Z,44.47
2023-04-02T09:06:34.655Z,44.54
2023-04-02T09:07:34.671Z,43.38
2023-04-02T09:08:34.706Z,39.74
2023-04-02T09:09:34.722Z,42.35
2023-04-02T09:10:34.799Z,40.03
2023-04-02T09:11:34.856Z,41.28
2023-04-02T09:12:34.911Z,40.02
2023-04-02T09:13:35.003Z,45.57
2023-04-02T09:14:35.028Z,37.11
2023-04-02T09:15:35.229Z,38.77
2023-04-02T09:16:35.144Z,40.88
2023-04-02T09:17:50.588Z,41.65
2023-04-02T09:18:36.274Z,41.93
2023-04-02T09:19:35.202Z,42.07
2023-04-02T09:20:35.215Z,42.15
2023-04-02T09:21:35.211Z,42.83
2023-04-02T09:22:35.234Z,44.41
2023-04-02T09:23:35.208Z,43.36
2023-04-02T09:24:35.149Z,44.08
2023-04-02T09:25:35.380Z,41.63
2023-04-02T09:26:35.161Z,42.81
2023-04-02T09:27:35.238Z,41.59
2023-04-02T09:28:35.292Z,40.12
2023-04-02T09:29:35.350Z,42.71
2023-04-02T09:30:35.389Z,39.31
2023-04-02T09:31:35.508Z,41.92
2023-04-02T09:32:35.525Z,40.52
2023-04-02T09:33:35.583Z,40.36
2023-04-02T09:34:35.602Z,40.35
2023-04-02T09:35:35.656Z,41.05
2023-04-02T09:36:35.716Z,39.77
2023-04-02T09:37:35.769Z,39.53
2023-04-02T09:38:35.812Z,41.76
2023-04-02T09:39:35.827Z,40.62
2023-04-02T09:40:35.890Z,39.96
2023-04-02T09:41:37.085Z,41.45
2023-04-02T09:42:35.980Z,38.97
2023-04-02T09:43:36.073Z,38.18
2023-04-02T09:44:36.090Z,42.59
2023-04-02T09:45:36.422Z,43.11
2023-04-02T09:46:36.221Z,39.98
2023-04-02T09:47:37.218Z,40.14
2023-04-02T09:48:36.334Z,40.03
2023-04-02T09:49:36.379Z,43.21
2023-04-02T09:50:36.382Z,42.45
2023-04-02T09:51:36.541Z,37.96
2023-04-02T09:52:36.490Z,38.47
2023-04-02T09:53:36.535Z,42.30
2023-04-02T09:54:36.579Z,44.86
2023-04-02T09:55:36.804Z,43.91
2023-04-02T09:56:36.717Z,41.04
2023-04-02T09:57:36.728Z,38.67
2023-04-02T09:58:36.846Z,39.69
2023-04-02T09:59:36.800Z,41.67
2023-04-02T10:00:36.886Z,43.38
2023-04-02T10:01:37.031Z,41.29
2023-04-02T10:02:37.001Z,38.93
2023-04-02T10:03:37.017Z,38.21
2023-04-02T10:04:37.113Z,42.04
2023-04-02T10:05:41.227Z,41.80
2023-04-02T10:06:37.073Z,42.04
2023-04-02T10:07:37.071Z,41.15
2023-04-02T10:08:37.121Z,42.30
2023-04-02T10:09:37.088Z,42.04
2023-04-02T10:10:37.239Z,41.10
2023-04-02T10:11:46.373Z,39.18
2023-04-02T10:12:38.057Z,39.57
2023-04-02T10:13:37.042Z,39.95
2023-04-02T10:14:37.065Z,40.82
2023-04-02T10:15:37.237Z,43.44
2023-04-02T10:16:37.079Z,42.56
2023-04-02T10:17:37.057Z,43.30
2023-04-02T10:18:36.990Z,46.10
2023-04-02T10:19:37.003Z,42.31
2023-04-02T10:20:50.527Z,41.06
2023-04-02T10:21:37.987Z,41.31
2023-04-02T10:22:36.977Z,41.95
2023-04-02T10:23:36.974Z,43.45
2023-04-02T10:24:36.936Z,44.06
2023-04-02T10:25:37.182Z,44.79
2023-04-02T10:26:36.947Z,40.45
2023-04-02T10:27:36.946Z,42.67
2023-04-02T10:28:36.968Z,44.09
2023-04-02T10:30:52.455Z,25.00
2023-04-02T10:31:52.376Z,25.00
2023-04-02T10:32:52.354Z,25.00
2023-04-02T10:33:52.375Z,25.00
2023-04-02T10:34:52.332Z,25.00
2023-04-02T10:35:52.347Z,27.19
2023-04-02T10:36:52.310Z,26.61
2023-04-02T10:37:52.348Z,27.27
2023-04-02T10:38:52.340Z,27.70
2023-04-02T10:39:52.326Z,25.55
2023-04-02T10:40:52.319Z,26.70
2023-04-02T10:41:52.273Z,26.80
2023-04-02T10:42:52.281Z,29.67
2023-04-02T10:43:52.271Z,29.41
2023-04-02T10:44:52.291Z,27.24
2023-04-02T10:45:52.267Z,28.60
2023-04-02T10:46:52.231Z,29.53
2023-04-02T10:47:52.305Z,30.98
2023-04-02T10:48:52.259Z,27.71
2023-04-02T10:49:52.320Z,33.55
2023-04-02T10:50:52.216Z,31.42
2023-04-02T10:51:52.216Z,30.33
2023-04-02T10:52:52.202Z,30.86
2023-04-02T10:53:52.207Z,29.03
2023-04-02T10:54:52.201Z,30.15
2023-04-02T10:55:52.177Z,29.55
2023-04-02T10:56:52.176Z,30.65
2023-04-02T10:57:52.187Z,27.59
2023-04-02T10:58:52.169Z,30.57
2023-04-02T10:59:52.169Z,31.60
2023-04-02T11:00:52.169Z,31.76
2023-04-02T11:01:52.270Z,29.44
2023-04-02T11:02:53.152Z,25.75
2023-04-02T11:03:52.228Z,32.88
2023-04-02T11:04:52.123Z,28.31
2023-04-02T11:05:52.144Z,29.83
2023-04-02T11:06:58.067Z,28.95
2023-04-02T11:07:53.110Z,29.29
2023-04-02T11:08:52.096Z,29.23
2023-04-02T11:09:52.081Z,30.25
2023-04-02T11:10:52.102Z,30.98
2023-04-02T11:11:52.080Z,31.13
2023-04-02T11:12:52.049Z,35.49
2023-04-02T11:13:52.066Z,32.96
2023-04-02T11:14:52.035Z,26.64
2023-04-02T11:15:52.050Z,33.11
2023-04-02T11:16:52.014Z,28.89
2023-04-02T11:17:52.071Z,31.64
2023-04-02T11:18:52.072Z,28.03
2023-04-02T11:19:52.118Z,30.60
2023-04-02T11:20:52.153Z,31.35
2023-04-02T11:21:59.481Z,28.42
2023-04-02T11:22:53.166Z,28.75
2023-04-02T11:23:52.170Z,29.26
2023-04-02T11:24:52.153Z,30.29
2023-04-02T11:25:52.153Z,31.86
2023-04-02T11:26:52.165Z,30.89
2023-04-02T11:27:52.155Z,30.68
2023-04-02T11:28:52.125Z,33.61
2023-04-02T11:29:52.147Z,31.63
2023-04-02T11:30:52.118Z,29.88
2023-04-02T11:31:52.128Z,27.04
2023-04-02T11:32:52.238Z,28.26
2023-04-02T11:33:52.173Z,29.39
2023-04-02T11:35:03.492Z,29.86
2023-04-02T11:35:53.257Z,30.04
2023-04-02T11:36:52.226Z,30.43
2023-04-02T11:37:52.180Z,31.87
2023-04-02T11:38:52.588Z,30.53
2023-04-02T11:39:52.184Z,29.69
2023-04-02T11:40:52.163Z,30.50
2023-04-02T11:41:52.169Z,30.97
2023-04-02T11:42:52.170Z,31.19
2023-04-02T11:43:52.155Z,32.76
2023-04-02T11:44:52.151Z,31.37
2023-04-02T11:45:53.187Z,28.41
2023-04-02T11:46:52.286Z,33.34
2023-04-02T11:47:52.260Z,30.07
2023-04-02T11:48:52.248Z,32.80
2023-04-02T11:49:52.276Z,35.22
2023-04-02T11:50:52.308Z,31.31
2023-04-02T11:52:02.171Z,32.99
2023-04-02T11:52:53.333Z,33.02
2023-04-02T11:53:52.343Z,33.05
2023-04-02T11:54:52.337Z,32.86
2023-04-02T11:55:52.310Z,34.05
2023-04-02T11:56:52.366Z,30.24
2023-04-02T11:57:52.286Z,29.94
2023-04-02T11:58:52.290Z,32.88
2023-04-02T11:59:52.328Z,33.74
2023-04-02T12:00:52.313Z,29.38
2023-04-02T12:01:52.325Z,32.02
2023-04-02T12:02:52.301Z,33.35
2023-04-02T12:03:52.335Z,30.04
2023-04-02T12:04:52.433Z,32.67
2023-04-02T12:05:52.395Z,32.50
2023-04-02T12:06:52.471Z,33.46
2023-04-02T12:07:52.643Z,34.69
2023-04-02T12:08:57.498Z,34.39
2023-04-02T12:09:53.556Z,34.54
2023-04-02T12:10:52.528Z,34.27
2023-04-02T12:11:52.590Z,32.82
2023-04-02T12:12:52.532Z,34.50
2023-04-02T12:13:52.495Z,32.19
2023-04-02T12:14:52.481Z,33.59
2023-04-02T12:15:52.495Z,33.44
2023-04-02T12:16:52.517Z,33.61
2023-04-02T12:17:52.539Z,35.53
2023-04-02T12:18:52.479Z,32.76
2023-04-02T12:19:52.468Z,33.20
2023-04-02T12:20:52.530Z,34.98
2023-04-02T12:21:52.569Z,32.35
2023-04-02T12:22:52.644Z,34.08
2023-04-02T12:23:52.677Z,34.56
2023-04-02T12:24:52.755Z,33.91
2023-04-02T12:25:52.762Z,37.44
2023-04-02T12:26:52.827Z,30.35
2023-04-02T12:27:52.867Z,32.11
2023-04-02T12:28:52.900Z,35.64
2023-04-02T12:29:52.957Z,31.26
2023-04-02T12:30:53.052Z,32.96
2023-04-02T12:31:53.072Z,36.49
2023-04-02T12:32:53.126Z,35.95
2023-04-02T12:33:53.165Z,34.81
2023-04-02T12:34:53.185Z,31.93
2023-04-02T12:35:53.256Z,37.10
2023-04-02T12:36:53.262Z,34.27
2023-04-02T12:37:53.334Z,33.74
2023-04-02T12:38:53.393Z,32.97
2023-04-02T12:39:53.422Z,34.02
2023-04-02T12:40:53.483Z,34.06
2023-04-02T12:41:53.513Z,33.24
2023-04-02T12:42:53.574Z,33.77
2023-04-02T12:43:53.620Z,33.28
2023-04-02T12:44:53.678Z,34.58
2023-04-02T12:45:53.726Z,34.18
2023-04-02T12:46:53.758Z,32.50
2023-04-02T12:47:53.864Z,34.31
2023-04-02T12:48:53.854Z,34.12
2023-04-02T12:49:53.909Z,33.92
2023-04-02T12:50:53.910Z,35.73
2023-04-02T12:51:53.968Z,34.56
2023-04-02T12:52:54.041Z,34.41
2023-04-02T12:53:54.075Z,32.85